Time;durP1;ratioP1;P1;durP2;ratioP2;P2;SDS_P1;SDS_P2;PMS_P1;PMS_P2;Temp;Humidity;BMP_temperature;BMP_pressure;BME280_temperature;BME280_humidity;BME280_pressure;Samples;Min_cycle;Max_cycle;Signal;HPM_P1;HPM_P2
2022/08/03 00:02:20;;;;;;;7.10;5.20;;;;;;;19.39;100.00;101498.63;5248715;28;20411;-63
2022/08/03 00:04:51;;;;;;;10.95;4.35;;;;;;;19.36;100.00;101501.94;5248157;28;20035;-64
2022/08/03 00:07:21;;;;;;;9.90;4.85;;;;;;;19.32;100.00;101498.22;5248163;28;20020;-62
2022/08/03 00:09:51;;;;;;;3.80;3.20;;;;;;;19.27;100.00;101492.00;5232064;28;20030;-62
2022/08/03 00:12:22;;;;;;;4.47;4.18;;;;;;;19.36;100.00;101504.69;5248716;28;20395;-63
2022/08/03 00:14:52;;;;;;;12.32;6.07;;;;;;;19.36;100.00;101495.66;5248003;28;20504;-63
2022/08/03 00:17:23;;;;;;;6.07;5.22;;;;;;;19.31;100.00;101495.75;5248439;28;20042;-63
2022/08/03 00:19:53;;;;;;;5.88;4.63;;;;;;;19.33;100.00;101499.03;5266561;28;20395;-63
2022/08/03 00:22:23;;;;;;;11.50;5.18;;;;;;;19.33;100.00;101494.34;5266272;28;20112;-63
2022/08/03 00:24:54;;;;;;;6.22;5.15;;;;;;;19.26;100.00;101482.97;5266317;28;20027;-63
2022/08/03 00:27:24;;;;;;;8.90;5.97;;;;;;;19.29;100.00;101490.59;5248162;28;20529;-62
2022/08/03 00:29:54;;;;;;;6.85;5.70;;;;;;;19.27;100.00;101486.50;5266578;28;20399;-62
2022/08/03 00:32:25;;;;;;;11.68;4.85;;;;;;;19.23;100.00;101492.59;5266170;28;20123;-62
2022/08/03 00:34:55;;;;;;;6.22;5.63;;;;;;;19.19;100.00;101496.22;5265643;28;20028;-63
2022/08/03 00:37:26;;;;;;;5.15;4.43;;;;;;;19.07;100.00;101479.41;5265800;28;20426;-64
2022/08/03 00:39:56;;;;;;;13.05;6.05;;;;;;;19.05;100.00;101477.00;5266127;28;20173;-62
2022/08/03 00:42:27;;;;;;;6.72;5.15;;;;;;;19.07;100.00;101485.72;5266139;28;20583;-64
2022/08/03 00:44:57;;;;;;;6.53;5.97;;;;;;;19.08;100.00;101478.31;5247522;28;20115;-63
2022/08/03 00:47:27;;;;;;;6.03;5.60;;;;;;;19.03;100.00;101476.50;5266324;28;20019;-62
2022/08/03 00:49:58;;;;;;;5.25;4.72;;;;;;;19.05;100.00;101479.75;5265990;28;20028;-63
2022/08/03 00:52:28;;;;;;;10.18;5.68;;;;;;;19.00;100.00;101477.09;5265447;28;20123;-63
2022/08/03 00:55:00;;;;;;;6.95;5.78;;;;;;;19.04;100.00;101480.84;5265767;28;20020;-62
2022/08/03 00:57:31;;;;;;;5.50;4.93;;;;;;;19.03;100.00;101478.41;5265484;28;20025;-63
2022/08/03 01:00:04;;;;;;;8.38;5.95;;;;;;;19.00;100.00;101476.28;5265365;28;20609;-67
2022/08/03 01:02:35;;;;;;;6.82;6.22;;;;;;;18.99;100.00;101482.84;5265777;28;20016;-63
2022/08/03 01:05:08;;;;;;;5.22;4.72;;;;;;;18.86;100.00;101463.31;5264954;28;20078;-63
2022/08/03 01:07:47;;;;;;;6.28;5.43;;;;;;;18.96;100.00;101472.50;5265577;28;20081;-62
2022/08/03 01:10:26;;;;;;;5.28;4.75;;;;;;;18.83;100.00;101450.22;5265428;28;20088;-63
2022/08/03 01:13:21;;;;;;;14.55;6.68;;;;;;;18.79;100.00;101457.41;5266105;28;20120;-63
2022/08/03 01:16:04;;;;;;;4.88;4.35;;;;;;;18.86;100.00;101467.97;5265939;28;20031;-62
2022/08/03 01:18:45;;;;;;;7.00;5.68;;;;;;;18.83;100.00;101466.66;5265373;28;20017;-63
2022/08/03 01:21:39;;;;;;;4.93;4.47;;;;;;;18.68;100.00;101450.47;5265506;28;20028;-62
2022/08/03 01:24:45;;;;;;;5.40;4.20;;;;;;;18.70;100.00;101453.72;5265182;28;20526;-63
2022/08/03 01:27:30;;;;;;;6.38;5.28;;;;;;;18.77;100.00;101461.53;5247377;28;20028;-62
2022/08/03 01:30:05;;;;;;;5.53;5.13;;;;;;;18.76;100.00;101462.69;5265345;28;20027;-62
2022/08/03 01:32:41;;;;;;;7.68;5.88;;;;;;;18.74;100.00;101459.44;5247704;28;20032;-61
2022/08/03 01:35:15;;;;;;;6.60;5.97;;;;;;;18.73;100.00;101464.09;5264859;28;20024;-61
2022/08/03 01:37:55;;;;;;;8.77;5.40;;;;;;;18.67;100.00;101456.25;5265473;28;20463;-62
2022/08/03 01:40:28;;;;;;;9.15;4.07;;;;;;;18.60;100.00;101459.34;5248024;28;20024;-61
2022/08/03 01:43:02;;;;;;;14.85;5.50;;;;;;;18.60;100.00;101459.34;5265513;28;20028;-61
2022/08/03 01:45:35;;;;;;;4.97;4.32;;;;;;;18.53;100.00;101454.19;5264655;28;20442;-61
2022/08/03 01:48:10;;;;;;;4.53;4.20;;;;;;;18.53;100.00;101462.41;5265234;28;20027;-61
2022/08/03 01:50:42;;;;;;;6.90;6.40;;;;;;;18.51;100.00;101458.31;5265061;28;20059;-61
2022/08/03 01:53:15;;;;;;;5.22;4.75;;;;;;;18.44;100.00;101447.78;5265228;28;20034;-61
2022/08/03 01:55:51;;;;;;;5.35;4.85;;;;;;;18.34;100.00;101436.97;5265162;28;20031;-61
2022/08/03 01:58:23;;;;;;;12.30;5.70;;;;;;;18.29;100.00;101436.22;5280319;22;20525;-84
2022/08/03 02:00:58;;;;;;;6.72;5.72;;;;;;;18.37;100.00;101458.25;5272333;28;20032;-83
2022/08/03 02:03:30;;;;;;;8.90;5.53;;;;;;;18.23;100.00;101433.53;5277760;28;20035;-82
2022/08/03 02:06:01;;;;;;;18.75;5.57;;;;;;;18.34;100.00;101447.91;5278905;28;20030;-83
2022/08/03 02:08:33;;;;;;;4.68;4.25;;;;;;;18.23;100.00;101433.53;5278147;28;20040;-82
2022/08/03 02:11:05;;;;;;;4.57;4.22;;;;;;;18.30;100.00;101448.78;5279995;28;20047;-84
2022/08/03 02:13:37;;;;;;;5.60;5.20;;;;;;;18.14;100.00;101434.50;5282025;28;20035;-82
2022/08/03 02:16:09;;;;;;;7.40;4.68;;;;;;;18.09;100.00;101432.63;5263785;28;20024;-82
2022/08/03 02:18:41;;;;;;;5.38;4.93;;;;;;;18.11;100.00;101429.63;5279362;28;20016;-82
2022/08/03 02:21:14;;;;;;;12.02;4.47;;;;;;;18.19;100.00;101448.91;5278569;28;20020;-82
2022/08/03 02:23:44;;;;;;;5.95;4.97;;;;;;;17.81;100.00;101392.53;5260312;28;20028;-82
2022/08/03 02:26:18;;;;;;;4.10;3.90;;;;;;;17.98;100.00;101427.56;5280092;28;20032;-82
2022/08/03 02:28:52;;;;;;;4.88;4.57;;;;;;;18.16;100.00;101454.16;5279206;28;20020;-81
2022/08/03 02:31:27;;;;;;;5.85;5.38;;;;;;;18.07;100.00;101439.50;5278957;28;20106;-85
2022/08/03 02:34:05;;;;;;;4.78;3.55;;;;;;;18.09;100.00;101443.56;5282510;28;20028;-81
2022/08/03 02:36:38;;;;;;;7.07;3.85;;;;;;;18.08;100.00;101450.16;5280396;28;20059;-82
2022/08/03 02:39:12;;;;;;;10.23;4.47;;;;;;;18.02;100.00;101445.84;5277088;28;20405;-83
2022/08/03 02:41:49;;;;;;;5.53;5.13;;;;;;;17.99;100.00;101440.13;5258299;28;20124;-84
2022/08/03 02:44:25;;;;;;;10.90;5.05;;;;;;;17.96;100.00;101444.25;5275317;28;20085;-84
2022/08/03 02:47:02;;;;;;;4.05;3.67;;;;;;;17.88;100.00;101434.81;5281946;28;20034;-84
2022/08/03 02:49:34;;;;;;;4.32;3.95;;;;;;;17.92;100.00;101437.75;5280918;28;20023;-83
2022/08/03 02:52:08;;;;;;;6.20;4.72;;;;;;;17.87;100.00;101424.16;5282387;28;20474;-84
2022/08/03 02:54:40;;;;;;;3.92;3.47;;;;;;;17.90;100.00;101437.25;5281583;28;20103;-84
2022/08/03 02:57:13;;;;;;;3.72;3.25;;;;;;;17.84;100.00;101435.69;5264065;28;20031;-84
2022/08/03 02:59:45;;;;;;;5.75;3.70;;;;;;;17.76;100.00;101428.94;5281819;28;20028;-84
2022/08/03 03:02:16;;;;;;;4.68;4.38;;;;;;;17.68;100.00;101417.81;5282313;28;20494;-82
2022/08/03 03:04:50;;;;;;;4.55;4.03;;;;;;;17.67;100.00;101424.38;5280290;28;20040;-82
2022/08/03 03:07:22;;;;;;;5.68;4.78;;;;;;;17.58;100.00;101415.19;5280470;28;20103;-84
2022/08/03 03:09:52;;;;;;;10.63;4.57;;;;;;;17.69;100.00;101444.03;5280802;28;20035;-84
2022/08/03 03:12:25;;;;;;;3.63;3.42;;;;;;;17.63;100.00;101432.31;5280700;28;20020;-84
2022/08/03 03:14:55;;;;;;;5.53;4.90;;;;;;;17.58;100.00;101420.63;5281452;28;20020;-84
2022/08/03 03:17:26;;;;;;;7.20;5.15;;;;;;;17.64;100.00;101430.38;5282523;28;20026;-84
2022/08/03 03:19:58;;;;;;;5.57;4.97;;;;;;;17.44;100.00;101409.56;5282252;28;20026;-85
2022/08/03 03:22:30;;;;;;;5.10;4.63;;;;;;;17.48;100.00;101416.91;5283521;28;20051;-85
2022/08/03 03:25:01;;;;;;;4.80;4.47;;;;;;;17.30;100.00;101394.97;5265327;28;20023;-83
2022/08/03 03:27:32;;;;;;;5.25;4.65;;;;;;;17.39;100.00;101418.63;5265283;28;20027;-84
2022/08/03 03:30:03;;;;;;;4.78;4.25;;;;;;;17.22;100.00;101393.69;5283688;28;20024;-83
2022/08/03 03:32:35;;;;;;;4.70;3.22;;;;;;;17.40;100.00;101420.25;5286518;28;20039;-83
2022/08/03 03:35:07;;;;;;;7.78;4.32;;;;;;;17.36;100.00;101426.56;5285322;28;20034;-83
2022/08/03 03:37:38;;;;;;;3.53;3.33;;;;;;;17.24;100.00;101407.88;5285120;28;20031;-84
2022/08/03 03:40:09;;;;;;;6.50;3.15;;;;;;;17.34;100.00;101429.59;5286368;28;20032;-83
2022/08/03 03:42:39;;;;;;;5.68;3.70;;;;;;;17.30;100.00;101431.28;5285066;28;20111;-82
2022/08/03 03:45:11;;;;;;;11.82;4.25;;;;;;;17.27;100.00;101423.66;5284684;28;20024;-83
2022/08/03 03:47:42;;;;;;;3.65;3.45;;;;;;;17.07;100.00;101405.53;5267150;28;20028;-82
2022/08/03 03:50:16;;;;;;;8.32;4.28;;;;;;;17.05;100.00;101401.47;5286318;28;20028;-83
2022/08/03 03:52:47;;;;;;;4.15;3.95;;;;;;;17.19;100.00;101435.19;5266763;28;20054;-83
2022/08/03 03:55:17;;;;;;;4.22;3.90;;;;;;;17.01;100.00;101403.16;5282761;28;20020;-84
2022/08/03 03:57:48;;;;;;;9.05;5.43;;;;;;;17.04;100.00;101408.03;5284760;28;20016;-83
2022/08/03 04:00:19;;;;;;;3.97;3.35;;;;;;;17.03;100.00;101409.97;5268206;28;20099;-83
2022/08/03 04:02:49;;;;;;;3.85;3.38;;;;;;;17.07;100.00;101419.19;5267520;28;20047;-83
2022/08/03 04:11:16;;;;;;;5.00;3.70;;;;;;;17.11;100.00;101422.97;5281672;28;20039;-85
2022/08/03 04:13:52;;;;;;;3.13;2.92;;;;;;;17.12;100.00;101426.50;5280840;28;20344;-85
2022/08/03 04:16:26;;;;;;;4.38;4.05;;;;;;;16.97;100.00;101399.38;5280919;28;20028;-83
2022/08/03 04:19:01;;;;;;;3.65;3.40;;;;;;;17.08;100.00;101417.28;5280695;28;20422;-84
2022/08/03 04:21:34;;;;;;;3.85;3.38;;;;;;;16.92;100.00;101385.75;5280503;28;20031;-84
2022/08/03 04:24:07;;;;;;;3.45;3.25;;;;;;;17.10;100.00;101428.72;5280386;28;20024;-84
2022/08/03 04:26:40;;;;;;;5.20;4.90;;;;;;;17.09;100.00;101429.81;5281456;28;20044;-83
2022/08/03 04:29:12;;;;;;;8.27;4.25;;;;;;;17.11;100.00;101436.63;5280320;28;20028;-83
2022/08/03 04:31:45;;;;;;;10.18;3.83;;;;;;;17.13;100.00;101426.22;5280642;28;20079;-84
2022/08/03 04:34:16;;;;;;;5.63;3.42;;;;;;;17.18;100.00;101439.03;5280931;28;20243;-84
2022/08/03 04:36:49;;;;;;;7.70;3.42;;;;;;;17.05;100.00;101415.91;5262936;28;20375;-83
2022/08/03 04:39:26;;;;;;;7.50;4.72;;;;;;;17.20;100.00;101436.81;5262557;28;20038;-84
2022/08/03 04:42:01;;;;;;;4.47;4.28;;;;;;;17.11;100.00;101427.63;5280739;28;20061;-83
2022/08/03 04:44:37;;;;;;;3.55;3.38;;;;;;;17.17;100.00;101443.66;5280182;28;20020;-83
2022/08/03 04:47:08;;;;;;;6.97;3.75;;;;;;;17.08;100.00;101422.72;5280653;28;20431;-84
2022/08/03 04:49:39;;;;;;;3.97;3.78;;;;;;;17.24;100.00;101448.81;5280605;28;20059;-83
2022/08/03 04:52:10;;;;;;;3.92;3.50;;;;;;;17.24;100.00;101443.34;5279847;28;20020;-83
2022/08/03 04:54:42;;;;;;;2.97;2.88;;;;;;;17.22;100.00;101437.34;5279812;28;20530;-84
2022/08/03 04:57:12;;;;;;;11.45;4.68;;;;;;;17.36;100.00;101445.69;5280550;28;20045;-83
2022/08/03 04:59:43;;;;;;;3.50;3.30;;;;;;;17.17;100.00;101413.66;5280588;28;20036;-84
2022/08/03 05:02:14;;;;;;;5.63;3.95;;;;;;;17.38;100.00;101438.84;5262182;28;20051;-82
2022/08/03 05:04:45;;;;;;;3.95;3.70;;;;;;;17.53;100.00;101455.09;5261771;28;20397;-83
2022/08/03 05:07:17;;;;;;;3.67;3.00;;;;;;;17.57;100.00;101446.31;5279724;28;20062;-84
2022/08/03 05:09:47;;;;;;;5.00;4.18;;;;;;;17.71;100.00;101466.41;5279767;28;20111;-83
2022/08/03 05:12:18;;;;;;;6.35;4.22;;;;;;;17.64;100.00;101441.31;5281327;28;20020;-84
2022/08/03 05:14:48;;;;;;;3.80;3.50;;;;;;;17.84;100.00;101473.94;5281768;28;20028;-84
2022/08/03 05:17:18;;;;;;;4.80;4.32;;;;;;;17.85;100.00;101465.44;5279861;28;20024;-83
2022/08/03 05:19:49;;;;;;;3.88;3.58;;;;;;;17.91;100.00;101457.16;5252064;28;20032;-84
2022/08/03 05:22:20;;;;;;;3.53;3.33;;;;;;;17.76;100.00;101433.56;5261904;28;20020;-84
2022/08/03 05:24:51;;;;;;;6.35;4.47;;;;;;;18.06;100.00;101471.50;5279477;28;20020;-85
2022/08/03 05:27:22;;;;;;;6.90;3.25;;;;;;;18.01;100.00;101452.41;5277050;28;20027;-84
2022/08/03 05:29:52;;;;;;;4.45;4.05;;;;;;;17.96;100.00;101449.72;5256848;28;20474;-84
2022/08/03 05:32:23;;;;;;;5.97;5.35;;;;;;;18.21;100.00;101462.28;5275111;28;20028;-84
2022/08/03 05:34:53;;;;;;;7.90;5.45;;;;;;;18.23;100.00;101471.81;5274473;28;20020;-84
2022/08/03 05:37:23;;;;;;;10.13;3.65;;;;;;;18.20;100.00;101456.00;5257726;28;20016;-85
2022/08/03 05:39:54;;;;;;;8.65;3.55;;;;;;;18.39;100.00;101471.63;5274310;28;20035;-86
2022/08/03 05:42:24;;;;;;;5.65;3.70;;;;;;;18.34;100.00;101449.81;5273636;28;20062;-85
2022/08/03 05:44:55;;;;;;;10.50;4.60;;;;;;;18.58;100.00;101477.94;5273783;28;20028;-87
2022/08/03 05:47:25;;;;;;;4.60;4.22;;;;;;;18.66;100.00;101482.78;5277307;28;20478;-85
2022/08/03 05:49:57;;;;;;;9.30;3.72;;;;;;;18.72;100.00;101484.34;5259007;28;20020;-86
2022/08/03 05:52:28;;;;;;;7.32;4.07;;;;;;;18.59;100.00;101456.84;5277375;28;20031;-86
2022/08/03 05:54:58;;;;;;;4.50;3.97;;;;;;;18.37;100.00;101422.72;5259856;28;20405;-86
2022/08/03 05:57:28;;;;;;;8.35;3.88;;;;;;;18.83;100.00;101476.78;5278709;28;20048;-86
2022/08/03 06:00:00;;;;;;;7.13;4.95;;;;;;;18.57;100.00;101418.84;5279514;28;20028;-87
2022/08/03 06:02:30;;;;;;;3.85;2.80;;;;;;;19.04;100.00;101480.03;5261251;28;20046;-87
2022/08/03 06:05:01;;;;;;;3.80;2.97;;;;;;;19.01;100.00;101467.75;5259352;28;20448;-87
2022/08/03 06:07:32;;;;;;;3.75;3.40;;;;;;;18.98;100.00;101465.63;5277273;28;20027;-87
2022/08/03 06:10:04;;;;;;;6.90;3.80;;;;;;;18.91;100.00;101443.28;5278636;28;20020;-87
2022/08/03 06:12:34;;;;;;;10.93;4.35;;;;;;;18.97;100.00;101455.78;5278472;28;20401;-87
2022/08/03 06:15:05;;;;;;;7.43;3.05;;;;;;;19.19;100.00;101472.38;5278580;28;20024;-87
2022/08/03 06:17:43;;;;;;;4.40;4.10;;;;;;;19.07;100.00;101439.16;5261214;28;20031;-87
2022/08/03 06:20:19;;;;;;;10.55;3.88;;;;;;;18.94;100.00;101423.53;5279508;28;20031;-86
2022/08/03 06:22:49;;;;;;;4.03;3.72;;;;;;;19.45;100.00;101471.97;5262765;28;20024;-86
2022/08/03 06:25:19;;;;;;;4.25;3.85;;;;;;;19.32;100.00;101443.44;5280263;28;20117;-86
2022/08/03 06:27:50;;;;;;;7.38;3.45;;;;;;;19.63;100.00;101489.50;5263122;28;20080;-85
2022/08/03 06:30:20;;;;;;;5.55;3.45;;;;;;;19.55;100.00;101455.38;5280326;28;20412;-85
2022/08/03 06:32:51;;;;;;;5.97;3.95;;;;;;;19.44;100.00;101429.25;5280972;28;20035;-86
2022/08/03 06:35:21;;;;;;;16.73;3.95;;;;;;;19.41;100.00;101422.44;5282919;28;20035;-84
2022/08/03 06:37:52;;;;;;;4.65;3.75;;;;;;;19.94;100.00;101486.97;5264708;28;20486;-85
2022/08/03 06:40:32;;;;;;;7.38;4.35;;;;;;;19.79;100.00;101453.28;5262183;28;20051;-85
2022/08/03 06:43:03;;;;;;;4.10;3.75;;;;;;;19.82;100.00;101427.19;5280807;28;20044;-85
2022/08/03 06:45:34;;;;;;;2.50;2.30;;;;;;;20.41;100.00;101503.06;5281718;28;20493;-85
2022/08/03 06:48:06;;;;;;;20.00;4.40;;;;;;;20.41;100.00;101467.41;5265000;28;20020;-84
2022/08/03 06:50:40;;;;;;;3.65;3.45;;;;;;;20.54;100.00;101452.00;5282703;28;20020;-84
2022/08/03 06:53:11;;;;;;;3.72;3.40;;;;;;;20.97;100.00;101473.56;5263402;28;20100;-83
2022/08/03 06:55:41;;;;;;;4.55;2.90;;;;;;;21.45;100.00;101493.78;5265782;28;20054;-83
2022/08/03 06:58:11;;;;;;;6.45;3.65;;;;;;;21.66;100.00;101465.78;5284455;28;20032;-83
2022/08/03 07:00:42;;;;;;;5.45;4.00;;;;;;;22.03;100.00;101472.75;5267313;28;20494;-84
2022/08/03 07:03:13;;;;;;;3.58;3.25;;;;;;;22.28;100.00;101471.22;5264838;28;20020;-83
2022/08/03 07:05:47;;;;;;;5.72;4.47;;;;;;;22.64;100.00;101495.75;5281845;28;20405;-83
2022/08/03 07:08:18;;;;;;;3.17;2.97;;;;;;;22.97;100.00;101499.69;5283168;28;20024;-83
2022/08/03 07:10:48;;;;;;;3.03;2.83;;;;;;;23.07;100.00;101476.53;5282936;28;20098;-83
2022/08/03 07:13:19;;;;;;;4.78;4.20;;;;;;;23.26;100.00;101490.75;5283147;28;20032;-83
2022/08/03 07:15:49;;;;;;;4.93;4.40;;;;;;;23.54;100.00;101518.78;5264566;28;20024;-83
2022/08/03 07:18:20;;;;;;;2.78;2.63;;;;;;;23.43;100.00;101468.66;5263104;28;20028;-83
2022/08/03 07:20:50;;;;;;;6.75;4.18;;;;;;;23.61;100.00;101480.50;5264681;28;20031;-82
2022/08/03 07:23:21;;;;;;;3.38;2.85;;;;;;;23.76;100.00;101484.66;5287564;28;20051;-83
2022/08/03 07:25:51;;;;;;;4.10;3.30;;;;;;;24.05;100.00;101500.44;5269230;28;20016;-82
2022/08/03 07:28:22;;;;;;;7.60;3.03;;;;;;;24.31;100.00;101497.59;5286967;28;20054;-82
2022/08/03 07:30:52;;;;;;;7.38;3.00;;;;;;;24.65;100.00;101515.91;5286614;28;20030;-82
2022/08/03 07:33:23;;;;;;;4.88;3.03;;;;;;;24.77;100.00;101493.88;5268147;28;20043;-82
2022/08/03 07:35:53;;;;;;;7.50;3.13;;;;;;;25.15;100.00;101518.63;5283499;28;20024;-83
2022/08/03 07:38:24;;;;;;;20.25;4.57;;;;;;;25.22;100.00;101494.81;5281559;28;20028;-84
2022/08/03 07:40:54;;;;;;;10.15;3.63;;;;;;;25.32;100.00;101493.59;5261182;28;20082;-87
2022/08/03 07:43:25;;;;;;;2.60;2.50;;;;;;;25.25;100.00;101476.75;5278859;28;20024;-81
2022/08/03 07:45:55;;;;;;;5.15;3.25;;;;;;;25.60;100.00;101510.38;5265610;28;20039;-84
2022/08/03 07:48:25;;;;;;;5.88;2.67;;;;;;;25.43;100.00;101496.72;5283672;28;20095;-82
2022/08/03 07:50:56;;;;;;;6.55;2.92;;;;;;;25.45;100.00;101506.28;5283380;28;20040;-84
2022/08/03 07:53:26;;;;;;;1.67;1.67;;;;;;;25.53;100.00;101510.94;5264954;28;20119;-83
2022/08/03 07:55:57;;;;;;;7.03;3.65;;;;;;;25.61;100.00;101500.94;5282932;28;20020;-83
2022/08/03 07:58:27;;;;;;;4.15;3.78;;;;;;;25.98;100.00;101518.44;5282050;22;20029;-59
2022/08/03 08:00:57;;;;;;;6.63;3.42;;;;;;;26.26;100.00;101507.50;5249982;28;20491;-59
2022/08/03 08:03:28;;;;;;;3.88;3.58;;;;;;;26.39;100.00;101511.09;5264754;28;20024;-59
2022/08/03 08:05:58;;;;;;;7.22;2.78;;;;;;;26.42;100.00;101513.16;5265762;28;20031;-59
2022/08/03 08:08:29;;;;;;;2.70;2.53;;;;;;;26.53;100.00;101497.69;5264522;28;20027;-59
2022/08/03 08:11:00;;;;;;;6.10;3.65;;;;;;;26.65;100.00;101507.94;5247681;28;20020;-61
2022/08/03 08:13:31;;;;;;;7.72;3.35;;;;;;;26.84;100.00;101508.94;5233287;28;20521;-61
2022/08/03 08:16:01;;;;;;;10.32;3.63;;;;;;;27.02;100.00;101498.41;5243951;28;20030;-59
2022/08/03 08:18:33;;;;;;;5.15;2.53;;;;;;;27.11;100.00;101503.81;5243777;28;20021;-59
2022/08/03 08:21:03;;;;;;;3.42;3.22;;;;;;;27.21;100.00;101497.72;5243698;28;20036;-59
2022/08/03 08:23:33;;;;;;;11.27;2.83;;;;;;;27.23;100.00;101492.63;5243529;28;20153;-58
2022/08/03 08:26:04;;;;;;;9.35;3.40;;;;;;;27.39;100.00;101495.47;5246507;28;20029;-60
2022/08/03 08:28:34;;;;;;;3.13;1.45;;;;;;;27.61;100.00;101485.78;5243120;28;20083;-60
2022/08/03 08:31:05;;;;;;;4.10;2.60;;;;;;;27.70;100.00;101491.97;5244799;28;20055;-60
2022/08/03 08:33:35;;;;;;;3.15;2.45;;;;;;;27.92;100.00;101484.97;5243247;28;20032;-60
2022/08/03 08:36:06;;;;;;;13.65;3.60;;;;;;;27.97;100.00;101487.50;5244003;28;20040;-60
2022/08/03 08:38:37;;;;;;;16.58;4.50;;;;;;;27.98;100.00;101483.56;5243904;28;20460;-60
2022/08/03 08:41:09;;;;;;;6.80;3.90;;;;;;;27.99;100.00;101483.19;5244471;28;20398;-60
2022/08/03 08:43:40;;;;;;;4.18;2.25;;;;;;;28.06;100.00;101486.13;5258499;22;20209;-77
2022/08/03 08:46:12;;;;;;;5.15;4.57;;;;;;;28.15;100.00;101483.16;5252429;28;20392;-77
2022/08/03 08:48:43;;;;;;;4.85;3.30;;;;;;;28.29;100.00;101478.00;5226397;28;20027;-77
2022/08/03 08:51:18;;;;;;;8.52;3.25;;;;;;;28.44;100.00;101479.09;5244398;28;20032;-77
2022/08/03 08:53:51;;;;;;;4.78;3.53;;;;;;;28.37;100.00;101446.41;5244005;28;20028;-77
2022/08/03 08:56:24;;;;;;;3.15;2.70;;;;;;;28.74;100.00;101468.25;5244341;28;20060;-77
2022/08/03 08:58:58;;;;;;;13.43;4.40;;;;;;;28.78;100.00;101475.50;5244689;28;20914;-77
2022/08/03 09:01:29;;;;;;;10.50;3.85;;;;;;;28.83;96.94;101466.09;5244211;28;20029;-77
2022/08/03 09:03:59;;;;;;;11.00;3.15;;;;;;;28.97;94.38;101476.69;5225617;28;20031;-78
2022/08/03 09:06:30;;;;;;;4.80;3.17;;;;;;;29.05;95.12;101470.91;5244368;28;20024;-77
2022/08/03 09:09:01;;;;;;;3.90;2.47;;;;;;;29.23;96.38;101471.25;5232043;28;20221;-78
2022/08/03 09:11:31;;;;;;;5.75;2.50;;;;;;;29.39;94.34;101474.75;5264730;28;20034;-77
2022/08/03 09:14:02;;;;;;;6.15;3.22;;;;;;;29.54;94.88;101461.94;5264404;28;20113;-77
2022/08/03 09:16:32;;;;;;;5.68;2.83;;;;;;;29.77;90.70;101478.63;5264868;28;20024;-77
2022/08/03 09:19:13;;;;;;;12.50;3.00;;;;;;;29.85;86.30;101467.25;5264590;28;20030;-78
2022/08/03 09:21:43;;;;;;;2.60;2.30;;;;;;;29.81;89.24;101438.53;5264688;28;20035;-77
2022/08/03 09:24:16;;;;;;;7.60;3.25;;;;;;;29.92;84.78;101444.28;5264898;28;20449;-77
2022/08/03 09:26:49;;;;;;;9.80;4.53;;;;;;;30.20;86.98;101475.38;5265283;28;20027;-78
2022/08/03 09:29:21;;;;;;;4.75;2.63;;;;;;;30.38;86.52;101474.84;5264877;28;20050;-78
2022/08/03 09:32:00;;;;;;;8.70;3.35;;;;;;;30.42;84.42;101470.94;5247461;28;20020;-78
2022/08/03 09:34:31;;;;;;;;;;;;;;;30.45;83.42;101463.78;5247643;28;20012;-78
2022/08/03 09:37:11;;;;;;;14.52;4.13;;;;;;;30.58;81.22;101468.00;5264656;28;19919;-78
2022/08/03 09:39:42;;;;;;;14.18;3.72;;;;;;;30.58;82.40;101467.19;5264871;28;20369;-78
2022/08/03 09:42:16;;;;;;;8.10;3.25;;;;;;;30.43;79.98;101446.66;5264731;28;20024;-78
2022/08/03 09:44:49;;;;;;;4.90;2.13;;;;;;;30.69;80.41;101468.13;5264167;28;20392;-77
2022/08/03 09:47:31;;;;;;;2.83;2.63;;;;;;;30.79;80.66;101457.13;5264555;28;20024;-78
2022/08/03 09:50:07;;;;;;;7.00;2.22;;;;;;;30.93;80.61;101458.47;5264651;28;20031;-78
2022/08/03 09:52:39;;;;;;;11.10;3.47;;;;;;;30.91;78.32;101461.63;5247260;28;20500;-77
2022/08/03 09:55:12;;;;;;;3.00;2.58;;;;;;;30.61;77.87;101467.22;5264477;28;20402;-77
2022/08/03 09:57:46;;;;;;;3.50;1.92;;;;;;;30.49;79.06;101457.09;5246437;28;20465;-77
2022/08/03 10:00:16;;;;;;;9.23;3.45;;;;;;;30.60;77.20;101460.06;5264949;28;20047;-78
2022/08/03 10:02:49;;;;;;;7.53;3.17;;;;;;;30.54;78.10;101456.78;5246484;28;20020;-78
2022/08/03 10:05:31;;;;;;;4.47;3.30;;;;;;;30.81;78.79;101459.53;5245736;28;20386;-78
2022/08/03 10:08:13;;;;;;;2.72;2.45;;;;;;;30.99;79.90;101456.94;5264710;28;20035;-77
2022/08/03 10:10:46;;;;;;;4.03;2.42;;;;;;;31.09;80.21;101459.06;5264334;28;20020;-78
2022/08/03 10:13:17;;;;;;;3.20;2.13;;;;;;;31.29;78.71;101457.72;5264364;28;20072;-78
2022/08/03 10:15:48;;;;;;;2.42;2.22;;;;;;;31.33;78.07;101466.13;5245979;28;20020;-78
2022/08/03 10:18:18;;;;;;;2.15;2.05;;;;;;;31.14;76.50;101434.44;5264405;28;20017;-77
2022/08/03 10:20:55;;;;;;;5.03;2.40;;;;;;;31.36;79.11;101463.38;5246377;28;20401;-78
2022/08/03 10:23:26;;;;;;;5.53;2.90;;;;;;;31.50;77.24;101449.53;5264355;28;20372;-78
2022/08/03 10:26:00;;;;;;;10.48;2.38;;;;;;;31.54;74.78;101447.59;5264308;28;20111;-78
2022/08/03 10:28:38;;;;;;;11.75;3.67;;;;;;;31.41;74.87;101442.69;5264374;28;20488;-78
2022/08/03 10:31:09;;;;;;;8.65;3.45;;;;;;;31.45;75.14;101447.13;5246391;28;20123;-78
2022/08/03 10:33:48;;;;;;;5.60;2.95;;;;;;;31.48;75.80;101432.38;5267960;28;20446;-77
2022/08/03 10:36:22;;;;;;;2.08;1.90;;;;;;;31.71;77.66;101434.22;5267832;28;20043;-78
2022/08/03 10:38:55;;;;;;;3.53;2.42;;;;;;;31.81;74.06;101433.47;5267900;28;20119;-78
2022/08/03 10:41:35;;;;;;;3.05;1.88;;;;;;;31.51;76.00;101414.03;5267956;28;20065;-78
2022/08/03 10:44:28;;;;;;;1.98;1.63;;;;;;;31.73;74.09;101424.25;5249554;28;20027;-77
2022/08/03 10:46:59;;;;;;;2.72;1.83;;;;;;;31.67;73.93;101434.16;5268007;28;20481;-77
2022/08/03 10:49:31;;;;;;;5.25;2.53;;;;;;;31.40;73.03;101419.56;5267867;28;20024;-77
2022/08/03 10:52:03;;;;;;;2.58;2.35;;;;;;;31.30;75.71;101422.22;5268003;28;20043;-77
2022/08/03 10:54:34;;;;;;;5.65;2.70;;;;;;;31.45;75.10;101422.00;5249412;28;20024;-76
2022/08/03 10:59:53;;;;;;;6.25;2.97;;;;;;;31.61;73.16;101412.53;5267806;28;20486;-77
2022/08/03 11:03:02;;;;;;;1.70;1.42;;;;;;;31.85;71.53;101418.34;5267769;28;20115;-77
2022/08/03 11:05:35;;;;;;;2.60;1.58;;;;;;;31.98;72.30;101418.84;5267610;28;20100;-76
2022/08/03 11:08:22;;;;;;;3.15;1.85;;;;;;;32.18;74.08;101405.38;5249395;28;20020;-77
2022/08/03 11:10:58;;;;;;;9.95;1.80;;;;;;;32.19;71.23;101402.22;5267771;28;20482;-77
2022/08/03 11:13:32;;;;;;;1.33;1.30;;;;;;;32.19;69.80;101413.38;5267472;28;20461;-77
2022/08/03 11:16:19;;;;;;;2.17;2.08;;;;;;;32.01;69.69;101398.50;5267251;28;20031;-77
2022/08/03 11:18:59;;;;;;;8.20;1.50;;;;;;;31.83;69.95;101403.16;5267317;28;20127;-76
2022/08/03 11:21:48;;;;;;;3.78;2.35;;;;;;;31.82;72.28;101402.34;5267249;28;20054;-76
2022/08/03 11:24:39;;;;;;;2.25;1.50;;;;;;;31.88;71.25;101400.00;5267057;28;20020;-76
2022/08/03 11:27:29;;;;;;;3.90;1.42;;;;;;;32.09;70.71;101400.13;5250225;28;20120;-76
2022/08/03 11:30:06;;;;;;;6.25;2.25;;;;;;;32.16;69.03;101400.19;5267684;28;20385;-76
2022/08/03 11:32:37;;;;;;;6.70;1.67;;;;;;;32.31;68.53;101400.31;5248876;28;20042;-75
2022/08/03 11:35:15;;;;;;;6.35;1.73;;;;;;;32.39;68.93;101396.34;5267794;28;20028;-77
2022/08/03 11:37:57;;;;;;;6.45;3.42;;;;;;;32.53;68.88;101407.59;5267525;28;20312;-75
2022/08/03 11:40:53;;;;;;;9.25;2.83;;;;;;;32.73;68.78;101397.69;5249055;28;20020;-76
2022/08/03 11:43:30;;;;;;;4.53;1.98;;;;;;;32.91;68.59;101405.38;5248909;28;20029;-76
2022/08/03 11:46:03;;;;;;;1.70;1.60;;;;;;;33.06;67.19;101401.41;5245635;28;20055;-76
2022/08/03 11:48:42;;;;;;;2.13;1.70;;;;;;;33.00;65.89;101397.38;5245951;28;20474;-76
2022/08/03 11:51:24;;;;;;;7.05;2.10;;;;;;;32.87;64.39;101397.75;5245478;28;20038;-76
2022/08/03 11:53:57;;;;;;;1.60;1.30;;;;;;;32.84;68.43;101392.16;5227239;28;20048;-77
2022/08/03 11:56:42;;;;;;;1.20;1.00;;;;;;;33.01;66.07;101394.19;5245867;28;20103;-77